• Join FlightAware (Why Join?)
  • Login
  • US Flag 
07:24AM EDT


 

Airport Tracker/Info


-or-


 

Live Flight TrackerFlight Track Log ✈ BJS542 ✈ 03-May-2013 ✈ KAPF - KCHS

Flight Track Log - Related Links

Times and Time Zones

All times are in EDT time to prevent confusion due to time zone crossing. See the BJS542 flight status page for this flight to view local times or setup timezone preferences in your user account.

Time Position Orientation Groundspeed Altitude Reporting Facility
EDT Latitude Longitude Course Direction KTS MPH feet Rate Location/Type
11:07AM 26.0747 -81.7808 North 165 190 41,000  Level Miami Center
11:08AM 26.1489 -81.7492 21° North 99 114 41,000  Level Miami Center
11:09AM 26.2428 -81.7506 359° North 221 254 41,000 -12,000 Level Miami Center
11:10AM 26.3431 -81.7525 359° North 295 339 17,000 -11,100 Descending Miami Center
11:11AM 26.4517 -81.7500 North 435 501 18,900 1,380 Climbing Miami Center
11:12AM 26.8611 -81.7426 North  Level FlightAware Approximate
11:12AM 26.5708 -81.7481 North 405 466 19,800  Level Miami Center
11:13AM 26.9794 -81.7333 North  Level FlightAware Approximate
11:13AM 26.6833 -81.7481 360° North 393 452 20,700  Level Miami Center
11:14AM 26.7961 -81.7481 360° North 393 452 21,000 420 Climbing Miami Center
11:15AM 26.9153 -81.7461 North 405 466 21,600 2,160 Climbing Miami Center
11:17AM 27.1317 -81.7061 North 417 480 27,500 2,760 Climbing Miami Center
11:18AM 27.2511 -81.6856 North 417 480 29,900 2,400 Climbing Miami Center
11:19AM 27.3850 -81.6769 North 432 497 32,300 2,100 Climbing Miami Center
11:20AM 27.5106 -81.6731 North 447 514 34,200 1,800 Climbing Miami Center
11:21AM 27.6403 -81.6644 North 452 520 36,000 1,680 Climbing Miami Center
11:22AM 27.7553 -81.6575 North 464 534 37,600 1,440 Climbing Miami Center
11:25AM 28.0603 -81.6389 North 457 526 40,900 960 Climbing Jacksonville Center
11:26AM 28.1939 -81.6328 North 462 532 41,000  Climbing Jacksonville Center
11:27AM 28.3231 -81.6264 North 462 532 41,000  Level Jacksonville Center
11:28AM 28.4544 -81.6200 North 462 532 41,000  Level Jacksonville Center
11:29AM 28.5858 -81.6136 North 462 532 41,000  Level Jacksonville Center
11:30AM 28.7092 -81.6072 North 457 526 41,000  Level Jacksonville Center
11:31AM 28.8364 -81.6008 North 452 520 41,000  Level Jacksonville Center
11:32AM 28.9614 -81.5922 North 452 520 41,000  Level Jacksonville Center
11:33AM 29.0889 -81.5953 359° North 452 520 41,000  Level Jacksonville Center
11:34AM 29.2061 -81.6269 347° North 446 513 41,000 -300 Level Jacksonville Center
11:35AM 29.3378 -81.6611 347° North 441 507 40,500 -1,080 Descending Jacksonville Center
11:36AM 29.4656 -81.6953 347° North 447 514 38,900 -1,560 Descending Jacksonville Center
11:37AM 29.5931 -81.7078 355° North 458 527 37,400 -1,500 Descending Jacksonville Center
11:38AM 29.7244 -81.7064 North 463 533 35,900 -1,500 Descending Jacksonville Center
11:39AM 29.8558 -81.7047 North 463 533 34,500 -1,500 Descending Jacksonville Center
11:40AM 29.9814 -81.7153 356° North 478 550 33,000 -780 Descending Jacksonville Center
11:41AM 30.1147 -81.6894 10° North 478 550 33,000  Level Jacksonville Center
11:42AM 30.2481 -81.6567 12° North 484 557 33,000  Level Jacksonville Center
11:43AM 30.3856 -81.6258 11° North 490 564 33,000  Level Jacksonville Center
11:44AM 30.5231 -81.5953 11° North 490 564 33,000  Level Jacksonville Center
11:45AM 30.6606 -81.5619 12° North 490 564 33,000  Level Jacksonville Center
11:46AM 30.7978 -81.5311 11° North 490 564 33,000  Level Jacksonville Center
11:47AM 30.9333 -81.4975 12° North 495 570 33,000  Level Jacksonville Center
11:48AM 31.0708 -81.4664 11° North 500 575 33,000  Level Jacksonville Center
11:49AM 31.2081 -81.4328 12° North 500 575 33,000  Level Jacksonville Center
11:50AM 31.3558 -81.3939 13° North 500 575 33,000  Level Jacksonville Center
11:51AM 31.4789 -81.3653 11° North 494 568 33,000 -900 Level Jacksonville Center
11:52AM 31.6308 -81.3261 12° North 494 568 31,200 -1,860 Descending Jacksonville Center
11:53AM 31.7514 -81.2972 12° North 494 568 29,300 -1,920 Descending Jacksonville Center
11:54AM 31.8825 -81.2656 12° North 484 557 27,400 -2,040 Descending Jacksonville Center
11:55AM 32.0094 -81.2217 16° North 479 551 25,300 -2,100 Descending Jacksonville Center
11:56AM 32.0997 -81.1144 45° Northeast 446 513 23,300 -2,100 Descending Jacksonville Center
11:57AM 32.1919 -80.9925 48° Northeast 436 502 21,200 -2,100 Descending Jacksonville Center
11:58AM 32.2636 -80.9000 47° Northeast 430 495 19,100 -2,340 Descending Jacksonville Center
11:59AM 32.3494 -80.7875 48° Northeast 415 478 16,600 -2,340 Descending Jacksonville Center
12:00PM 32.4106 -80.7025 50° Northeast 398 458 14,500 -2,100 Descending Jacksonville Center
12:01PM 32.4719 -80.6197 49° Northeast 360 414 12,500 -1,560 Descending Jacksonville Center
12:02PM 32.5314 -80.5739 33° Northeast 278 320 11,400 -1,500 Descending Jacksonville Center
12:03PM 32.6000 -80.5525 15° North 235 270 9,500 -1,920 Descending Jacksonville Center
12:04PM 32.6369 -80.5169 39° Northeast 214 246 7,600 -2,040 Descending Jacksonville Center
12:05PM 32.6650 -80.4569 61° Northeast 187 215 5,500 -1,860 Descending Jacksonville Center
12:06PM 32.6828 -80.4047 68° East 181 208 3,900 -1,260 Descending Jacksonville Center
12:07PM 32.6817 -80.3456 91° East 175 201 3,000 -480 Descending Jacksonville Center
12:08PM 32.6803 -80.2789 91° East 181 208 3,000  Level Jacksonville Center
12:09PM 32.6892 -80.2044 82° East 201 231 3,000  Level Jacksonville Center
12:11PM 32.8603 -80.0641 48° Northeast  Level FlightAware Approximate
12:18PM 32.8833 -80.0333 48° Northeast  Level FlightAware Approximate
12:19PM 32.8986 -80.0405 48° Northeast  Level Estimated
12:20PM 32.8986 -80.0405 48° Northeast  Level Estimated
12:21PM 32.8986 -80.0405 48° Northeast  Level Estimated